Overview Statistics Trail Chart Weather Telemetry Raw packets
 

This is the latest recevied weather packets stored in our database for station/object PY2WOA-13. If no packets are shown the sender has not sent any weather packets the latest 10 day(s).

<< 1 2 3 4 5 6 >>
Time Temp. Humidity Pressure Rain* Wind** Luminosity Snow
1788588304 21.11° C 83% 1010 hPa - - - -
1788586504 21.67° C 83% 1009.9 hPa - - - -
1788584704 21.67° C 81% 1010.2 hPa - - - -
1788582904 22.22° C 78% 1010.3 hPa - - - -
1788581104 22.22° C 77% 1010.6 hPa - - - -
1788579304 22.22° C 76% 1010.9 hPa - - - -
1788577504 22.22° C 74% 1011.2 hPa - - - -
1788575704 22.78° C 73% 1011.2 hPa - - - -
1788573904 23.33° C 72% 1011 hPa - - - -
1788572103 23.33° C 71% 1011 hPa - - - -
1788570304 23.33° C 74% 1011.1 hPa - - - -
1788568504 23.33° C 75% 1011.3 hPa - - - -
1788566704 23.89° C 76% 1011.2 hPa - - - -
1788564905 24.44° C 73% 1011.5 hPa - - - -
1788563104 26.11° C 57% 1011.6 hPa - - - -
1788561304 26.67° C 55% 1011.1 hPa - - - -
1788559503 26.11° C 56% 1010.9 hPa - - - -
1788557704 26.11° C 56% 1010.5 hPa - - - -
1788555904 27.22° C 54% 1009.2 hPa - - - -
1788554104 27.78° C 53% 1008.9 hPa - - - -
1788552304 28.89° C 48% 1008.5 hPa - - - -
1788550504 30.56° C 43% 1008.1 hPa - - - -
1788548704 33.33° C 29% 1007 hPa - - - -
1788546904 36.11° C 26% 1006.4 hPa - - - -
1788545104 40° C 21% 1006.2 hPa - - - -

* Rain since midnight (hover to see other rain measurements)
** Current wind speed in m/s (hover to see current wind gust speed)